Time;durP1;ratioP1;P1;durP2;ratioP2;P2;SDS_P1;SDS_P2;PMS_P1;PMS_P2;Temp;Humidity;BMP_temperature;BMP_pressure;BME280_temperature;BME280_humidity;BME280_pressure;Samples;Min_cycle;Max_cycle;Signal;HPM_P1;HPM_P2
2023/12/23 00:00:09;;;;;;;20.93;3.27;;;10.80;99.90;;;;;;4988326;28;37391;-81
2023/12/23 00:02:35;;;;;;;19.73;3.10;;;10.90;99.90;;;;;;4966237;28;36933;-82
2023/12/23 00:05:01;;;;;;;14.93;2.70;;;10.90;99.90;;;;;;4963034;28;39558;-79
2023/12/23 00:07:27;;;;;;;25.00;3.73;;;10.90;99.90;;;;;;4982627;28;38309;-80
2023/12/23 00:09:54;;;;;;;17.37;3.17;;;10.90;99.90;;;;;;4968381;28;36920;-81
2023/12/23 00:12:20;;;;;;;18.03;2.90;;;11.00;99.90;;;;;;4969163;28;35987;-83
2023/12/23 00:14:46;;;;;;;17.30;2.97;;;10.90;99.90;;;;;;4982029;28;39250;-81
2023/12/23 00:17:12;;;;;;;16.33;3.80;;;11.00;99.90;;;;;;4964274;28;38043;-81
2023/12/23 00:19:38;;;;;;;19.97;3.07;;;11.00;99.90;;;;;;4963611;28;38412;-82
2023/12/23 00:22:04;;;;;;;15.40;3.50;;;11.00;99.90;;;;;;4964166;28;36478;-82
2023/12/23 00:24:31;;;;;;;18.50;3.43;;;11.00;99.90;;;;;;4967192;28;40546;-79
2023/12/23 00:26:58;;;;;;;21.87;3.90;;;11.00;99.90;;;;;;4966912;28;39839;-80
2023/12/23 00:29:25;;;;;;;22.73;3.47;;;11.00;99.90;;;;;;4965946;28;37406;-81
2023/12/23 00:31:51;;;;;;;18.33;3.50;;;11.00;99.90;;;;;;4967866;28;37889;-77
2023/12/23 00:34:17;;;;;;;17.63;2.47;;;11.00;99.90;;;;;;4965522;28;37268;-80
2023/12/23 00:36:43;;;;;;;17.67;3.23;;;11.10;99.90;;;;;;4962392;28;38418;-81
2023/12/23 00:39:10;;;;;;;22.90;3.87;;;11.00;99.90;;;;;;4965906;28;37915;-79
2023/12/23 00:41:37;;;;;;;18.37;3.07;;;11.00;99.90;;;;;;4967132;28;38000;-80
2023/12/23 00:44:03;;;;;;;18.13;2.97;;;11.10;99.90;;;;;;4966983;28;40028;-80
2023/12/23 00:46:29;;;;;;;19.17;3.63;;;11.10;99.90;;;;;;4961519;28;37582;-79
2023/12/23 00:48:55;;;;;;;24.90;3.40;;;11.00;99.90;;;;;;4965721;28;37779;-78
2023/12/23 00:51:22;;;;;;;18.07;3.23;;;11.00;99.90;;;;;;4967040;28;36429;-82
2023/12/23 00:53:48;;;;;;;15.03;2.77;;;11.00;99.90;;;;;;4969191;28;38615;-80
2023/12/23 00:56:21;;;;;;;19.40;3.30;;;11.00;99.90;;;;;;4977908;28;38148;-80
2023/12/23 00:58:48;;;;;;;18.97;2.70;;;10.90;99.90;;;;;;4966207;28;36776;-81
2023/12/23 01:01:14;;;;;;;16.30;2.73;;;10.90;99.90;;;;;;4972858;28;36993;-80
2023/12/23 01:03:40;;;;;;;20.10;3.00;;;10.90;99.90;;;;;;4984545;28;37825;-81
2023/12/23 01:06:06;;;;;;;16.47;2.67;;;10.80;99.90;;;;;;4962054;28;37638;-80
2023/12/23 01:08:32;;;;;;;18.40;3.23;;;10.80;99.90;;;;;;4957274;28;36948;-80
2023/12/23 01:10:59;;;;;;;17.73;3.40;;;10.60;99.90;;;;;;4965296;28;37222;-80
2023/12/23 01:13:25;;;;;;;27.93;3.37;;;10.60;99.90;;;;;;4964639;28;38197;-81
2023/12/23 01:15:51;;;;;;;18.83;3.13;;;10.50;99.90;;;;;;4973486;28;37350;-79
2023/12/23 01:18:18;;;;;;;22.70;2.93;;;10.40;99.90;;;;;;4961867;28;37111;-80
2023/12/23 01:20:44;;;;;;;20.77;3.53;;;10.40;99.90;;;;;;4969428;28;37078;-80
2023/12/23 01:23:10;;;;;;;19.87;3.17;;;10.30;99.90;;;;;;4964715;28;37663;-80
2023/12/23 01:25:36;;;;;;;20.73;3.20;;;10.30;99.90;;;;;;4970487;28;38980;-82
2023/12/23 01:28:05;;;;;;;22.87;3.97;;;10.30;99.90;;;;;;4964567;28;38175;-80
2023/12/23 01:30:32;;;;;;;27.10;4.07;;;10.30;99.90;;;;;;4961625;28;38220;-79
2023/12/23 01:32:58;;;;;;;22.37;3.33;;;10.30;99.90;;;;;;4963044;28;37800;-84
2023/12/23 01:35:24;;;;;;;23.73;4.47;;;10.30;99.90;;;;;;4964479;28;37890;-83
2023/12/23 01:37:51;;;;;;;24.53;3.57;;;10.30;99.90;;;;;;4962524;28;38552;-80
2023/12/23 01:40:17;;;;;;;21.60;4.00;;;10.30;99.90;;;;;;4960000;28;35109;-81
2023/12/23 01:42:43;;;;;;;24.10;3.80;;;10.40;99.90;;;;;;4964495;28;38849;-84
2023/12/23 01:45:10;;;;;;;25.63;3.97;;;10.50;99.90;;;;;;4954895;28;37322;-84
2023/12/23 01:47:40;;;;;;;24.20;3.93;;;10.50;99.90;;;;;;4959086;28;37252;-84
2023/12/23 01:50:09;;;;;;;16.60;3.33;;;10.60;99.90;;;;;;4976097;28;37090;-82
2023/12/23 01:52:36;;;;;;;24.13;3.40;;;10.60;99.90;;;;;;4956892;28;38432;-84
2023/12/23 01:55:08;;;;;;;17.47;2.63;;;10.60;99.90;;;;;;4960263;28;38673;-84
2023/12/23 01:57:34;;;;;;;15.20;2.37;;;10.70;99.90;;;;;;4968931;28;48820;-84
2023/12/23 02:00:01;;;;;;;17.77;2.63;;;10.70;99.90;;;;;;4982112;28;36044;-81
2023/12/23 02:02:30;;;;;;;20.93;3.23;;;10.50;99.90;;;;;;5677070;22;38936;-81
2023/12/23 02:13:18;;;;;;;18.57;2.90;;;10.50;99.90;;;;;;5730846;22;20192;-81
2023/12/23 02:15:53;;;;;;;20.40;3.43;;;10.50;99.90;;;;;;4977406;28;50077;-81
2023/12/23 02:19:13;;;;;;;19.00;3.17;;;10.50;99.90;;;;;;4941702;28;39580;-81
2023/12/23 02:21:58;;;;;;;27.33;2.83;;;10.60;99.90;;;;;;5001103;23;50190;-81
2023/12/23 02:24:29;;;;;;;18.33;3.40;;;10.70;99.90;;;;;;5008409;28;39934;-81
2023/12/23 02:27:10;;;;;;;25.13;3.13;;;10.70;99.90;;;;;;5000034;28;40054;-82
2023/12/23 02:29:53;;;;;;;22.90;3.90;;;10.70;99.90;;;;;;4978452;28;48511;-82
2023/12/23 02:32:52;;;;;;;21.20;3.25;;;10.70;99.90;;;;;;4993440;28;49866;-80
2023/12/23 02:35:52;;;;;;;18.90;2.43;;;10.70;99.90;;;;;;5022727;28;38943;-81
2023/12/23 02:38:37;;;;;;;26.43;3.47;;;10.80;99.90;;;;;;4979794;28;39544;-82
2023/12/23 02:41:27;;;;;;;16.67;2.83;;;10.80;99.90;;;;;;4991913;28;37607;-80
2023/12/23 02:44:03;;;;;;;14.80;2.60;;;10.80;99.90;;;;;;5005023;28;38673;-81
2023/12/23 02:46:56;;;;;;;16.02;2.63;;;10.90;99.90;;;;;;4992401;28;49980;-82
2023/12/23 02:49:42;;;;;;;13.40;2.37;;;10.90;99.90;;;;;;4986056;28;39950;-82
2023/12/23 02:52:14;;;;;;;13.88;2.42;;;11.00;99.90;;;;;;4979954;28;36505;-80
2023/12/23 02:54:49;;;;;;;17.37;2.40;;;11.00;99.90;;;;;;4980318;28;38760;-81
2023/12/23 02:57:29;;;;;;;14.27;2.47;;;11.00;99.90;;;;;;4994043;28;40127;-81
2023/12/23 03:00:06;;;;;;;15.37;3.03;;;11.00;99.90;;;;;;4988006;28;39098;-82
2023/12/23 03:02:37;;;;;;;13.33;2.20;;;11.00;99.90;;;;;;4976021;28;39516;-82
2023/12/23 03:05:30;;;;;;;15.33;2.20;;;11.00;99.90;;;;;;4996897;28;37877;-81
2023/12/23 03:08:02;;;;;;;15.47;2.50;;;11.10;99.90;;;;;;4988593;28;39484;-81
2023/12/23 03:10:33;;;;;;;18.40;4.07;;;11.00;99.90;;;;;;4982798;28;47349;-82
2023/12/23 03:13:17;;;;;;;13.90;2.28;;;11.00;99.90;;;;;;4993843;28;38514;-81
2023/12/23 03:15:47;;;;;;;13.87;3.03;;;11.00;99.90;;;;;;4962820;28;48927;-81
2023/12/23 03:18:18;;;;;;;18.90;3.03;;;11.10;99.90;;;;;;4996953;28;39748;-82
2023/12/23 03:20:53;;;;;;;16.87;2.70;;;11.00;99.90;;;;;;5003240;28;41074;-81
2023/12/23 03:23:52;;;;;;;9.97;2.20;;;11.00;99.90;;;;;;4957394;28;49541;-81
2023/12/23 03:26:42;;;;;;;14.97;3.10;;;11.00;99.90;;;;;;4984207;28;38506;-80
2023/12/23 03:29:20;;;;;;;19.70;3.07;;;11.00;99.90;;;;;;5015707;28;38273;-81
2023/12/23 03:31:56;;;;;;;11.87;2.57;;;11.00;99.90;;;;;;4962841;28;49241;-81
2023/12/23 03:34:38;;;;;;;19.33;2.47;;;10.90;99.90;;;;;;4994757;28;38395;-81
2023/12/23 03:37:13;;;;;;;20.63;3.73;;;11.00;99.90;;;;;;4949002;28;37619;-81
2023/12/23 03:40:08;;;;;;;19.57;3.23;;;11.00;99.90;;;;;;4970995;28;39700;-81
2023/12/23 03:42:40;;;;;;;21.30;3.33;;;11.00;99.90;;;;;;4980149;28;38571;-81
2023/12/23 03:45:16;;;;;;;19.85;2.75;;;11.00;99.90;;;;;;4969240;28;38594;-81
2023/12/23 03:47:52;;;;;;;12.77;2.83;;;11.00;99.90;;;;;;4990952;28;38317;-81
2023/12/23 03:50:27;;;;;;;25.42;3.45;;;10.90;99.90;;;;;;4991250;28;39480;-80
2023/12/23 03:53:05;;;;;;;19.30;3.20;;;10.90;99.90;;;;;;5007201;28;39948;-81
2023/12/23 03:55:39;;;;;;;21.20;3.20;;;11.00;99.90;;;;;;4978060;28;48664;-81
2023/12/23 03:58:17;;;;;;;13.53;2.93;;;11.00;99.90;;;;;;4987184;28;38861;-81
2023/12/23 04:00:49;;;;;;;14.47;2.43;;;11.00;99.90;;;;;;5000345;28;37876;-81
2023/12/23 04:03:27;;;;;;;19.47;2.97;;;11.00;99.90;;;;;;4998836;28;38715;-81
2023/12/23 04:05:57;;;;;;;16.97;2.83;;;11.00;99.90;;;;;;5001839;28;38733;-81
2023/12/23 04:08:33;;;;;;;22.90;2.70;;;11.00;99.90;;;;;;4984476;28;50107;-80
2023/12/23 04:11:02;;;;;;;14.48;3.25;;;11.00;99.90;;;;;;4975131;28;39451;-81
2023/12/23 04:13:32;;;;;;;15.13;2.70;;;11.00;99.90;;;;;;4995307;28;48806;-80
2023/12/23 04:16:06;;;;;;;22.23;3.37;;;11.10;99.90;;;;;;5013868;28;39749;-80
2023/12/23 04:18:37;;;;;;;18.30;3.03;;;11.00;99.90;;;;;;5011998;28;47582;-80
2023/12/23 04:21:19;;;;;;;22.57;3.23;;;11.10;99.90;;;;;;5013304;28;40067;-81
2023/12/23 04:23:47;;;;;;;13.40;2.27;;;11.00;99.90;;;;;;5021330;28;39665;-81
2023/12/23 04:26:18;;;;;;;18.87;3.67;;;11.00;99.90;;;;;;4992800;28;38204;-81
2023/12/23 04:28:47;;;;;;;17.20;3.03;;;11.10;99.90;;;;;;4986064;28;38638;-81
2023/12/23 04:31:18;;;;;;;13.50;2.90;;;11.10;99.90;;;;;;4982179;28;38205;-81
2023/12/23 04:33:46;;;;;;;;;;;11.10;99.90;;;;;;5010193;28;39880;-81
2023/12/23 04:36:17;;;;;;;23.37;3.27;;;11.00;99.90;;;;;;5002806;28;37682;-81
2023/12/23 04:38:57;;;;;;;16.73;3.73;;;11.00;99.90;;;;;;5007027;28;37670;-81
2023/12/23 04:41:30;;;;;;;20.63;3.87;;;11.00;99.90;;;;;;4978306;28;49499;-81
2023/12/23 04:44:05;;;;;;;18.40;3.57;;;11.00;99.90;;;;;;5018386;28;39852;-80
2023/12/23 04:46:35;;;;;;;28.07;3.83;;;11.00;99.90;;;;;;4976550;28;48848;-80
2023/12/23 04:49:05;;;;;;;19.73;3.50;;;11.00;99.90;;;;;;5004728;28;38314;-81
2023/12/23 04:51:37;;;;;;;19.17;3.70;;;11.00;99.90;;;;;;5009881;28;49868;-80
2023/12/23 04:54:07;;;;;;;18.93;2.90;;;11.00;99.90;;;;;;5002266;28;41234;-81
2023/12/23 04:56:38;;;;;;;18.63;3.57;;;11.00;99.90;;;;;;5006693;28;39600;-81
2023/12/23 04:59:09;;;;;;;20.80;2.97;;;11.00;99.90;;;;;;5019078;28;37919;-80
2023/12/23 05:01:39;;;;;;;17.05;3.50;;;11.10;99.90;;;;;;4998099;28;39122;-81
2023/12/23 05:04:09;;;;;;;22.13;4.13;;;11.10;99.90;;;;;;4992781;28;40140;-81
2023/12/23 05:06:46;;;;;;;20.00;3.17;;;11.10;99.90;;;;;;5014343;28;38814;-81
2023/12/23 05:09:14;;;;;;;19.02;3.03;;;11.10;99.90;;;;;;5010268;28;36866;-80
2023/12/23 05:11:43;;;;;;;20.00;3.23;;;11.10;99.90;;;;;;5010490;28;39283;-80
2023/12/23 05:14:11;;;;;;;21.07;3.17;;;11.10;99.90;;;;;;5007569;28;39143;-80
2023/12/23 05:16:39;;;;;;;19.47;3.47;;;11.10;99.90;;;;;;5007183;28;40047;-80
2023/12/23 05:19:08;;;;;;;18.53;2.87;;;11.10;99.90;;;;;;5003557;28;37092;-80
2023/12/23 05:21:36;;;;;;;21.70;4.47;;;11.10;99.90;;;;;;5013409;28;39449;-81
2023/12/23 05:24:08;;;;;;;17.93;4.50;;;11.10;99.90;;;;;;5003640;28;38848;-81
2023/12/23 05:26:35;;;;;;;12.57;2.90;;;11.10;99.90;;;;;;4998941;28;38584;-80
2023/12/23 05:29:02;;;;;;;19.53;3.53;;;11.10;99.90;;;;;;5013797;28;37547;-79
2023/12/23 05:31:31;;;;;;;23.67;4.70;;;11.10;99.90;;;;;;5010168;28;48708;-81
2023/12/23 05:33:58;;;;;;;22.73;3.57;;;11.00;99.90;;;;;;5008708;28;38061;-80
2023/12/23 05:36:24;;;;;;;16.77;3.00;;;11.00;99.90;;;;;;5002612;28;35958;-81
2023/12/23 05:38:51;;;;;;;25.00;4.40;;;11.10;99.90;;;;;;5002372;28;37930;-81
2023/12/23 05:41:17;;;;;;;20.80;3.60;;;11.10;99.90;;;;;;5007822;28;38422;-81
2023/12/23 05:43:44;;;;;;;24.20;4.20;;;11.10;99.90;;;;;;5009217;28;37677;-80
2023/12/23 05:46:10;;;;;;;20.40;3.45;;;11.10;99.90;;;;;;5002114;28;37755;-81
2023/12/23 05:48:36;;;;;;;18.77;3.40;;;11.10;99.90;;;;;;5008933;28;36309;-81
2023/12/23 05:51:03;;;;;;;15.43;3.53;;;11.10;99.90;;;;;;5007636;28;38161;-80
2023/12/23 05:53:29;;;;;;;22.40;3.33;;;11.10;99.90;;;;;;5008252;28;38993;-80
2023/12/23 05:55:55;;;;;;;14.73;2.90;;;11.10;99.90;;;;;;5002984;28;36602;-81
2023/12/23 05:58:21;;;;;;;23.80;4.00;;;11.10;99.90;;;;;;5006638;28;36339;-81
2023/12/23 06:00:49;;;;;;;24.67;3.57;;;11.10;99.90;;;;;;5007876;28;38821;-80
2023/12/23 06:03:19;;;;;;;20.97;3.67;;;11.10;99.90;;;;;;5010573;28;38991;-80
2023/12/23 06:05:46;;;;;;;18.27;2.92;;;11.10;99.90;;;;;;5002729;28;37391;-80
2023/12/23 06:08:12;;;;;;;21.85;3.22;;;11.10;99.90;;;;;;5015316;28;37525;-81
2023/12/23 06:10:38;;;;;;;14.93;2.85;;;11.20;99.90;;;;;;5007340;28;39150;-80
2023/12/23 06:13:05;;;;;;;15.18;3.78;;;11.10;99.90;;;;;;5008303;28;38488;-80
2023/12/23 06:15:31;;;;;;;14.15;2.60;;;11.10;99.90;;;;;;5000859;28;36945;-80
2023/12/23 06:17:57;;;;;;;17.90;3.42;;;11.20;99.90;;;;;;5001926;28;37713;-79
2023/12/23 06:20:23;;;;;;;19.90;4.03;;;11.20;99.90;;;;;;4994595;28;42398;-80
2023/12/23 06:22:50;;;;;;;16.33;3.50;;;11.20;99.90;;;;;;4998768;28;37690;-80
2023/12/23 06:25:16;;;;;;;21.80;3.30;;;11.20;99.90;;;;;;4995681;28;37565;-80
2023/12/23 06:27:43;;;;;;;16.63;2.67;;;11.20;99.90;;;;;;4996047;28;34873;-81
2023/12/23 06:30:10;;;;;;;20.70;3.50;;;11.20;99.90;;;;;;4988871;28;39327;-80
2023/12/23 06:32:38;;;;;;;19.17;4.05;;;11.10;99.90;;;;;;4989872;28;38160;-80
2023/12/23 06:35:05;;;;;;;13.53;3.60;;;11.10;99.90;;;;;;4995105;28;38467;-81
2023/12/23 06:37:34;;;;;;;18.30;3.42;;;11.10;99.90;;;;;;4988041;28;38229;-81
2023/12/23 06:40:00;;;;;;;21.70;3.53;;;11.10;99.90;;;;;;4997431;28;38563;-81
2023/12/23 06:42:27;;;;;;;18.63;3.13;;;11.20;99.90;;;;;;4994707;28;39331;-80
2023/12/23 06:44:54;;;;;;;18.50;2.78;;;11.20;99.90;;;;;;5003111;28;39691;-80
2023/12/23 06:47:21;;;;;;;23.20;3.80;;;11.10;99.90;;;;;;5005349;28;38257;-81
2023/12/23 06:49:48;;;;;;;17.23;2.80;;;11.10;99.90;;;;;;5000939;28;37670;-80
2023/12/23 06:52:16;;;;;;;19.35;3.38;;;11.10;99.90;;;;;;4997832;28;39116;-79
2023/12/23 06:54:43;;;;;;;17.85;3.65;;;11.10;99.90;;;;;;5002917;28;37495;-80
2023/12/23 06:57:10;;;;;;;18.55;3.20;;;11.10;99.90;;;;;;4998983;28;36471;-81
2023/12/23 06:59:36;;;;;;;24.92;3.80;;;11.10;99.90;;;;;;5003976;28;39863;-81
2023/12/23 07:02:12;;;;;;;20.15;3.95;;;11.10;99.90;;;;;;5004939;28;38863;-81
2023/12/23 07:04:39;;;;;;;15.98;2.70;;;11.10;99.90;;;;;;5007572;28;38547;-80
2023/12/23 07:07:07;;;;;;;21.38;3.17;;;11.10;99.90;;;;;;5006751;28;37099;-80
2023/12/23 07:09:36;;;;;;;14.65;3.08;;;11.20;99.90;;;;;;4999308;28;37772;-81
2023/12/23 07:12:08;;;;;;;20.27;3.90;;;11.20;99.90;;;;;;5009172;28;39157;-80
2023/12/23 07:14:37;;;;;;;19.88;3.45;;;11.20;99.90;;;;;;5015111;28;37747;-81
2023/12/23 07:17:06;;;;;;;17.98;3.35;;;11.30;99.90;;;;;;5010127;28;36750;-81
2023/12/23 07:19:39;;;;;;;26.40;3.72;;;11.30;99.90;;;;;;4992891;28;39080;-81
2023/12/23 07:22:07;;;;;;;23.35;3.17;;;11.30;99.90;;;;;;4999115;28;38907;-80
2023/12/23 07:24:35;;;;;;;19.63;3.22;;;11.30;99.90;;;;;;4999687;28;39015;-81
2023/12/23 07:27:04;;;;;;;16.00;3.10;;;11.30;99.90;;;;;;5015217;28;38050;-80
2023/12/23 07:29:33;;;;;;;14.23;3.30;;;11.30;99.90;;;;;;5003355;28;39098;-80
2023/12/23 07:32:01;;;;;;;16.92;2.50;;;11.40;99.90;;;;;;5005021;28;38847;-81
2023/12/23 07:34:29;;;;;;;16.03;3.17;;;11.40;99.90;;;;;;4995837;28;49373;-80
2023/12/23 07:37:00;;;;;;;16.93;3.17;;;11.30;99.90;;;;;;5005880;28;39778;-81
2023/12/23 07:39:46;;;;;;;17.77;3.30;;;11.40;99.90;;;;;;5013840;28;48652;-81
2023/12/23 07:42:21;;;;;;;23.73;2.77;;;11.40;99.90;;;;;;4995312;28;38740;-81
2023/12/23 07:44:55;;;;;;;11.25;2.63;;;11.40;99.90;;;;;;5012636;28;38787;-81
2023/12/23 07:47:34;;;;;;;14.83;2.50;;;11.50;99.90;;;;;;5005693;28;49506;-81
2023/12/23 07:50:27;;;;;;;12.35;2.13;;;11.50;99.90;;;;;;5011651;28;40333;-82
2023/12/23 07:53:02;;;;;;;15.17;2.40;;;11.50;99.90;;;;;;4982322;28;46514;-82
2023/12/23 07:55:30;;;;;;;10.90;2.37;;;11.50;99.90;;;;;;5005089;28;49881;-80
2023/12/23 07:58:24;;;;;;;14.10;2.20;;;11.50;99.90;;;;;;5009347;28;39862;-80
2023/12/23 08:00:53;;;;;;;12.85;2.45;;;11.50;99.90;;;;;;5007596;28;39527;-81
2023/12/23 08:03:22;;;;;;;15.50;2.25;;;11.50;99.90;;;;;;4984476;28;38675;-80
2023/12/23 08:05:53;;;;;;;20.37;3.47;;;11.50;99.90;;;;;;5002724;28;38333;-81
2023/12/23 08:08:21;;;;;;;11.07;1.80;;;11.50;99.90;;;;;;4989310;28;36593;-80
2023/12/23 08:10:50;;;;;;;12.77;2.10;;;11.50;99.90;;;;;;4995480;28;38509;-80
2023/12/23 08:13:23;;;;;;;11.02;2.15;;;11.50;99.90;;;;;;4997225;28;37806;-81
2023/12/23 08:15:55;;;;;;;14.50;2.30;;;11.50;99.90;;;;;;4996332;28;38595;-80
2023/12/23 08:18:23;;;;;;;16.35;2.95;;;11.50;99.90;;;;;;4972153;28;35821;-82
2023/12/23 08:20:50;;;;;;;16.10;2.60;;;11.50;99.90;;;;;;5004845;28;39757;-81
2023/12/23 08:23:19;;;;;;;15.40;2.77;;;11.40;99.90;;;;;;4995234;28;38496;-80
2023/12/23 08:25:46;;;;;;;14.50;2.53;;;11.40;99.90;;;;;;5004221;28;36315;-80
2023/12/23 08:28:12;;;;;;;14.63;2.33;;;11.30;99.90;;;;;;5005049;28;37732;-81
2023/12/23 08:30:39;;;;;;;18.13;3.30;;;11.30;99.90;;;;;;5002515;28;38930;-79
2023/12/23 08:33:05;;;;;;;12.07;2.80;;;11.30;99.90;;;;;;5006993;28;37727;-80
2023/12/23 08:35:49;;;;;;;22.53;2.90;;;11.40;99.90;;;;;;5010185;28;36960;-81
2023/12/23 08:38:22;;;;;;;17.60;3.50;;;11.40;99.90;;;;;;5001646;28;38454;-81
2023/12/23 08:40:49;;;;;;;;;;;11.40;99.90;;;;;;4994081;28;42915;-80
2023/12/23 08:43:16;;;;;;;15.55;3.10;;;11.40;99.90;;;;;;4990116;28;39008;-80
2023/12/23 08:45:42;;;;;;;17.23;3.40;;;11.40;99.90;;;;;;4986665;28;37207;-79
2023/12/23 08:48:09;;;;;;;16.30;2.80;;;11.50;99.90;;;;;;4981718;28;38068;-80
2023/12/23 08:50:35;;;;;;;21.30;3.30;;;11.50;99.90;;;;;;4996077;28;39325;-78
2023/12/23 08:53:02;;;;;;;16.55;2.97;;;11.50;99.90;;;;;;4986823;28;37378;-79
2023/12/23 08:55:28;;;;;;;20.83;3.10;;;11.50;99.90;;;;;;4992915;28;47122;-79
2023/12/23 08:57:54;;;;;;;15.60;2.85;;;11.50;99.90;;;;;;4993204;28;36471;-79
2023/12/23 09:00:21;;;;;;;15.90;2.90;;;11.50;99.90;;;;;;4991484;28;41626;-80
2023/12/23 09:02:47;;;;;;;21.80;3.22;;;11.50;99.90;;;;;;4989823;28;37527;-81
2023/12/23 09:05:13;;;;;;;15.57;2.65;;;11.50;99.90;;;;;;4989642;28;38202;-79
2023/12/23 09:07:40;;;;;;;24.60;3.03;;;11.50;99.90;;;;;;4982978;28;38324;-79
2023/12/23 09:10:07;;;;;;;18.23;2.40;;;11.50;99.90;;;;;;4994374;28;38981;-79
2023/12/23 09:12:35;;;;;;;15.25;2.60;;;11.50;99.90;;;;;;4988468;28;37481;-79
2023/12/23 09:15:03;;;;;;;20.90;2.58;;;11.50;99.90;;;;;;4992048;28;38120;-80
2023/12/23 09:17:30;;;;;;;16.70;3.22;;;11.50;99.90;;;;;;4994514;28;39039;-80
2023/12/23 09:19:56;;;;;;;14.50;3.47;;;11.50;99.90;;;;;;4991697;28;40812;-80
2023/12/23 09:22:22;;;;;;;21.45;3.17;;;11.50;99.90;;;;;;4997166;28;36437;-80
2023/12/23 09:24:48;;;;;;;22.40;3.42;;;11.50;99.90;;;;;;4993300;28;38370;-80
2023/12/23 09:27:15;;;;;;;23.17;3.47;;;11.50;99.90;;;;;;4991149;28;37492;-79
2023/12/23 09:29:41;;;;;;;18.10;2.90;;;11.50;99.90;;;;;;4993026;28;37832;-80
2023/12/23 09:32:07;;;;;;;19.08;3.50;;;11.50;99.90;;;;;;5019818;28;37567;-80
2023/12/23 09:34:33;;;;;;;20.33;3.28;;;11.50;99.90;;;;;;5011802;28;39903;-79
2023/12/23 09:37:00;;;;;;;20.00;3.60;;;11.50;99.90;;;;;;5010932;28;38194;-81
2023/12/23 09:39:26;;;;;;;20.80;3.05;;;11.50;99.90;;;;;;5009122;28;38925;-80
2023/12/23 09:41:54;;;;;;;17.92;2.55;;;11.50;99.90;;;;;;5010788;28;38493;-80
2023/12/23 09:44:23;;;;;;;22.40;3.20;;;11.60;99.90;;;;;;5007534;28;38134;-80
2023/12/23 09:46:50;;;;;;;20.33;3.90;;;11.70;99.90;;;;;;5006500;28;37572;-80
2023/12/23 09:49:16;;;;;;;20.73;3.43;;;11.70;99.90;;;;;;5007671;28;38023;-80
2023/12/23 09:51:48;;;;;;;24.20;4.10;;;11.60;99.90;;;;;;5011987;28;38485;-80
2023/12/23 09:54:20;;;;;;;16.20;2.90;;;11.60;99.90;;;;;;5005217;28;39156;-81
2023/12/23 09:56:50;;;;;;;22.10;6.05;;;11.60;99.90;;;;;;5011737;28;37533;-81
2023/12/23 09:59:16;;;;;;;14.65;2.65;;;11.60;99.90;;;;;;5014625;28;39652;-81
2023/12/23 10:01:42;;;;;;;13.63;3.00;;;11.60;99.90;;;;;;5001676;28;37401;-80
2023/12/23 10:04:09;;;;;;;12.30;2.55;;;11.60;99.90;;;;;;4997688;28;36769;-80
2023/12/23 10:06:36;;;;;;;16.80;2.38;;;11.60;99.90;;;;;;4999041;28;36097;-80
2023/12/23 10:09:03;;;;;;;23.35;2.67;;;11.70;99.90;;;;;;4988978;28;39557;-79
2023/12/23 10:11:29;;;;;;;12.20;2.55;;;11.70;99.90;;;;;;4993139;28;38591;-79
2023/12/23 10:13:56;;;;;;;12.55;2.55;;;11.70;99.90;;;;;;4988877;28;38635;-79
2023/12/23 10:16:22;;;;;;;13.95;2.78;;;11.80;99.90;;;;;;4992272;28;38086;-80
2023/12/23 10:18:49;;;;;;;16.60;2.92;;;11.80;99.90;;;;;;4993743;28;37361;-80
2023/12/23 10:21:15;;;;;;;20.38;3.08;;;11.90;99.90;;;;;;4994089;28;39164;-80
2023/12/23 10:23:41;;;;;;;13.43;2.47;;;11.90;99.90;;;;;;4999664;28;38187;-80
2023/12/23 10:26:09;;;;;;;17.58;3.60;;;11.90;99.90;;;;;;4996277;28;36512;-80
2023/12/23 10:28:37;;;;;;;19.10;3.45;;;11.90;99.90;;;;;;5014542;28;38350;-80
2023/12/23 10:31:06;;;;;;;17.00;2.85;;;11.90;99.90;;;;;;4999610;28;37506;-80
2023/12/23 10:33:41;;;;;;;23.27;3.40;;;12.00;99.90;;;;;;5002077;28;37010;-80
2023/12/23 10:36:12;;;;;;;18.48;4.03;;;12.00;99.90;;;;;;5006721;28;37964;-80
2023/12/23 10:38:51;;;;;;;19.25;2.95;;;12.10;99.90;;;;;;5004177;28;39217;-79
2023/12/23 10:41:46;;;;;;;17.23;2.40;;;12.20;96.30;;;;;;4996005;28;38745;-79
2023/12/23 10:44:21;;;;;;;15.80;2.60;;;12.20;95.80;;;;;;4989699;28;38926;-79
2023/12/23 10:46:50;;;;;;;11.85;2.90;;;12.20;95.40;;;;;;4995371;28;37764;-80
2023/12/23 10:49:17;;;;;;;16.00;3.33;;;12.20;96.40;;;;;;4992853;28;37973;-79
2023/12/23 10:51:45;;;;;;;15.18;3.15;;;12.20;93.80;;;;;;4999759;28;38843;-79
2023/12/23 10:54:12;;;;;;;14.80;3.17;;;12.30;92.60;;;;;;4990193;28;37783;-79
2023/12/23 10:56:40;;;;;;;13.88;2.15;;;12.30;90.60;;;;;;4997355;28;37891;-79
2023/12/23 10:59:07;;;;;;;14.70;2.97;;;12.40;92.20;;;;;;4997415;28;40665;-79
2023/12/23 11:01:35;;;;;;;12.57;2.17;;;12.30;90.60;;;;;;4992783;28;38874;-79
2023/12/23 11:04:02;;;;;;;15.23;2.08;;;12.30;84.60;;;;;;4992049;28;37367;-80
2023/12/23 11:06:31;;;;;;;12.32;2.38;;;12.30;86.60;;;;;;4996967;28;37616;-80
2023/12/23 11:08:59;;;;;;;12.07;2.22;;;12.20;84.40;;;;;;5002132;28;39155;-79
2023/12/23 11:11:30;;;;;;;12.90;2.72;;;12.20;91.60;;;;;;4995836;28;38982;-79
2023/12/23 11:13:57;;;;;;;17.55;3.00;;;12.30;84.70;;;;;;4996740;28;38678;-79
2023/12/23 11:16:24;;;;;;;8.98;1.65;;;12.20;68.70;;;;;;4997409;28;37553;-79
2023/12/23 11:18:53;;;;;;;12.95;1.95;;;12.20;76.50;;;;;;4991736;28;38634;-79
2023/12/23 11:21:19;;;;;;;12.60;2.17;;;12.20;67.80;;;;;;4991205;28;39543;-79
2023/12/23 11:23:46;;;;;;;8.60;1.55;;;12.20;62.10;;;;;;4987038;28;38174;-80
2023/12/23 11:26:41;;;;;;;8.60;1.83;;;12.20;59.60;;;;;;4987396;28;36607;-79
2023/12/23 11:29:09;;;;;;;7.47;1.83;;;12.20;59.60;;;;;;4989122;28;37630;-80
2023/12/23 11:31:36;;;;;;;7.18;1.63;;;12.30;59.50;;;;;;4997329;28;38246;-80
2023/12/23 11:34:15;;;;;;;9.07;1.92;;;12.30;52.90;;;;;;4994517;28;39795;-79
2023/12/23 11:36:43;;;;;;;12.40;2.05;;;12.30;49.20;;;;;;4996097;28;37277;-79
2023/12/23 11:39:13;;;;;;;6.25;1.25;;;12.40;49.50;;;;;;4996476;28;37817;-79
2023/12/23 11:41:42;;;;;;;14.50;1.83;;;12.40;42.60;;;;;;4996084;28;38116;-78
2023/12/23 11:44:11;;;;;;;9.52;1.58;;;12.50;39.70;;;;;;5000831;28;37358;-79
2023/12/23 11:46:40;;;;;;;5.85;1.15;;;12.50;36.10;;;;;;5009785;28;37784;-78
2023/12/23 11:49:10;;;;;;;8.77;1.40;;;12.50;36.80;;;;;;5003020;28;39023;-79
2023/12/23 11:51:42;;;;;;;10.63;1.85;;;12.50;33.90;;;;;;5006835;28;39392;-79
2023/12/23 11:54:08;;;;;;;11.18;1.67;;;12.40;31.80;;;;;;5007571;28;36724;-79
2023/12/23 11:56:35;;;;;;;8.23;1.65;;;12.40;40.10;;;;;;5008376;28;35901;-80
2023/12/23 11:59:01;;;;;;;7.93;1.25;;;12.40;41.50;;;;;;5008484;28;37849;-80
2023/12/23 12:01:33;;;;;;;6.82;1.38;;;12.40;35.60;;;;;;5006069;28;47331;-80
2023/12/23 12:03:59;;;;;;;10.73;1.80;;;12.40;39.10;;;;;;5007807;28;38464;-80
2023/12/23 12:06:26;;;;;;;11.27;2.05;;;12.40;31.60;;;;;;5004867;28;36029;-80
2023/12/23 12:08:54;;;;;;;5.78;1.40;;;12.40;28.90;;;;;;5006772;28;37990;-79
2023/12/23 12:11:22;;;;;;;10.25;1.88;;;12.30;38.90;;;;;;4997100;28;37117;-80
2023/12/23 12:13:49;;;;;;;9.27;1.77;;;12.30;39.40;;;;;;4995424;28;35495;-80
2023/12/23 12:16:15;;;;;;;12.15;3.25;;;12.30;46.50;;;;;;5000350;28;37661;-80
2023/12/23 12:18:41;;;;;;;19.10;2.85;;;12.30;51.70;;;;;;5002522;28;38202;-80
2023/12/23 12:21:10;;;;;;;15.65;2.35;;;12.30;53.90;;;;;;4999928;28;38624;-80
2023/12/23 12:23:37;;;;;;;10.73;1.95;;;12.30;64.00;;;;;;5011220;28;39233;-80
2023/12/23 12:26:03;;;;;;;11.38;2.60;;;12.50;61.70;;;;;;5006503;28;37312;-79
2023/12/23 12:28:30;;;;;;;11.68;2.47;;;12.50;58.60;;;;;;5008761;28;41053;-81
2023/12/23 12:31:07;;;;;;;13.52;2.20;;;12.50;57.90;;;;;;5005134;28;41412;-79
2023/12/23 12:33:35;;;;;;;19.20;2.67;;;12.50;56.60;;;;;;5003225;28;48106;-80
2023/12/23 12:36:01;;;;;;;10.70;2.00;;;12.50;56.20;;;;;;5006321;28;36466;-79
2023/12/23 12:38:28;;;;;;;10.93;1.75;;;12.50;56.50;;;;;;4997595;28;46860;-79
2023/12/23 12:40:54;;;;;;;10.48;1.75;;;12.50;56.60;;;;;;5000427;28;37261;-79
2023/12/23 12:43:29;;;;;;;10.90;2.00;;;12.50;56.00;;;;;;5000253;28;36626;-78
2023/12/23 12:45:56;;;;;;;13.73;2.65;;;12.30;58.50;;;;;;5001766;28;36962;-78
2023/12/23 12:48:23;;;;;;;16.67;2.45;;;12.20;63.20;;;;;;4996913;28;38874;-78
2023/12/23 12:50:51;;;;;;;13.02;2.40;;;12.30;66.50;;;;;;4984973;28;39177;-77
2023/12/23 12:53:17;;;;;;;12.77;2.25;;;12.20;73.10;;;;;;4988203;28;37040;-78
2023/12/23 12:55:43;;;;;;;13.57;2.22;;;12.20;80.00;;;;;;4989714;28;37143;-78
2023/12/23 12:58:10;;;;;;;13.82;2.20;;;12.10;84.60;;;;;;4990379;28;39947;-78
2023/12/23 13:00:36;;;;;;;9.60;2.08;;;12.10;90.70;;;;;;4993379;28;40498;-77